sensor_id;sensor_type;location;lat;lon;timestamp;P1;durP1;ratioP1;P2;durP2;ratioP2
59468;SDS011;45277;52.768;18.262;2023-04-24T00:00:01;18.02;;;13.48;;
59468;SDS011;45277;52.768;18.262;2023-04-24T00:01:36;22.88;;;14.07;;
59468;SDS011;45277;52.768;18.262;2023-04-24T00:03:09;21.58;;;13.32;;
59468;SDS011;45277;52.768;18.262;2023-04-24T00:04:41;19.02;;;13.77;;
59468;SDS011;45277;52.768;18.262;2023-04-24T00:06:16;17.95;;;13.82;;
59468;SDS011;45277;52.768;18.262;2023-04-24T00:07:47;16.33;;;11.82;;
59468;SDS011;45277;52.768;18.262;2023-04-24T00:09:19;19.73;;;12.85;;
59468;SDS011;45277;52.768;18.262;2023-04-24T00:10:50;17.88;;;13.02;;
59468;SDS011;45277;52.768;18.262;2023-04-24T00:12:23;18.30;;;12.57;;
59468;SDS011;45277;52.768;18.262;2023-04-24T00:13:56;18.35;;;12.38;;
59468;SDS011;45277;52.768;18.262;2023-04-24T00:15:27;18.58;;;12.68;;
59468;SDS011;45277;52.768;18.262;2023-04-24T00:16:59;17.63;;;12.63;;
59468;SDS011;45277;52.768;18.262;2023-04-24T00:18:30;14.88;;;11.77;;
59468;SDS011;45277;52.768;18.262;2023-04-24T00:20:02;18.48;;;12.85;;
59468;SDS011;45277;52.768;18.262;2023-04-24T00:21:35;17.50;;;12.27;;
59468;SDS011;45277;52.768;18.262;2023-04-24T00:23:07;19.15;;;13.05;;
59468;SDS011;45277;52.768;18.262;2023-04-24T00:24:38;18.55;;;12.63;;
59468;SDS011;45277;52.768;18.262;2023-04-24T00:26:10;17.88;;;11.88;;
59468;SDS011;45277;52.768;18.262;2023-04-24T00:27:42;19.85;;;12.95;;
59468;SDS011;45277;52.768;18.262;2023-04-24T00:29:13;18.00;;;12.75;;
59468;SDS011;45277;52.768;18.262;2023-04-24T00:30:44;18.13;;;12.90;;
59468;SDS011;45277;52.768;18.262;2023-04-24T00:32:16;18.60;;;11.90;;
59468;SDS011;45277;52.768;18.262;2023-04-24T00:33:48;18.38;;;11.90;;
59468;SDS011;45277;52.768;18.262;2023-04-24T00:35:19;17.25;;;12.20;;
59468;SDS011;45277;52.768;18.262;2023-04-24T00:36:51;16.88;;;12.20;;
59468;SDS011;45277;52.768;18.262;2023-04-24T00:38:22;18.17;;;11.77;;
59468;SDS011;45277;52.768;18.262;2023-04-24T00:39:54;17.70;;;12.50;;
59468;SDS011;45277;52.768;18.262;2023-04-24T00:41:26;16.60;;;11.88;;
59468;SDS011;45277;52.768;18.262;2023-04-24T00:42:57;15.95;;;11.95;;
59468;SDS011;45277;52.768;18.262;2023-04-24T00:44:28;15.93;;;11.82;;
59468;SDS011;45277;52.768;18.262;2023-04-24T00:46:00;17.15;;;12.15;;
59468;SDS011;45277;52.768;18.262;2023-04-24T00:47:32;17.92;;;12.13;;
59468;SDS011;45277;52.768;18.262;2023-04-24T00:49:04;17.15;;;12.57;;
59468;SDS011;45277;52.768;18.262;2023-04-24T00:50:37;15.02;;;11.80;;
59468;SDS011;45277;52.768;18.262;2023-04-24T00:52:09;16.50;;;12.32;;
59468;SDS011;45277;52.768;18.262;2023-04-24T00:53:41;21.48;;;12.45;;
59468;SDS011;45277;52.768;18.262;2023-04-24T00:55:12;16.92;;;12.15;;
59468;SDS011;45277;52.768;18.262;2023-04-24T00:56:44;15.88;;;12.05;;
59468;SDS011;45277;52.768;18.262;2023-04-24T00:58:15;16.45;;;12.15;;
59468;SDS011;45277;52.768;18.262;2023-04-24T00:59:47;16.75;;;11.75;;
59468;SDS011;45277;52.768;18.262;2023-04-24T01:01:19;17.30;;;11.98;;
59468;SDS011;45277;52.768;18.262;2023-04-24T01:02:51;16.55;;;12.00;;
59468;SDS011;45277;52.768;18.262;2023-04-24T01:04:24;18.95;;;12.88;;
59468;SDS011;45277;52.768;18.262;2023-04-24T01:05:56;20.05;;;13.35;;
59468;SDS011;45277;52.768;18.262;2023-04-24T01:07:28;18.77;;;13.18;;
59468;SDS011;45277;52.768;18.262;2023-04-24T01:09:00;18.85;;;13.27;;
59468;SDS011;45277;52.768;18.262;2023-04-24T01:10:32;17.35;;;12.50;;
59468;SDS011;45277;52.768;18.262;2023-04-24T01:12:06;19.48;;;13.50;;
59468;SDS011;45277;52.768;18.262;2023-04-24T01:13:37;18.02;;;13.40;;
59468;SDS011;45277;52.768;18.262;2023-04-24T01:15:10;21.48;;;13.75;;
59468;SDS011;45277;52.768;18.262;2023-04-24T01:16:41;18.35;;;12.98;;
59468;SDS011;45277;52.768;18.262;2023-04-24T01:18:13;17.92;;;12.68;;
59468;SDS011;45277;52.768;18.262;2023-04-24T01:19:45;19.80;;;12.85;;
59468;SDS011;45277;52.768;18.262;2023-04-24T01:21:17;19.63;;;12.73;;
59468;SDS011;45277;52.768;18.262;2023-04-24T01:22:52;20.27;;;11.80;;
59468;SDS011;45277;52.768;18.262;2023-04-24T01:24:26;16.20;;;12.30;;
59468;SDS011;45277;52.768;18.262;2023-04-24T01:25:58;15.45;;;12.00;;
59468;SDS011;45277;52.768;18.262;2023-04-24T01:27:30;17.88;;;12.05;;
59468;SDS011;45277;52.768;18.262;2023-04-24T01:29:02;15.35;;;12.43;;
59468;SDS011;45277;52.768;18.262;2023-04-24T01:30:33;18.50;;;12.90;;
59468;SDS011;45277;52.768;18.262;2023-04-24T01:32:05;16.63;;;11.73;;
59468;SDS011;45277;52.768;18.262;2023-04-24T01:33:37;17.15;;;12.45;;
59468;SDS011;45277;52.768;18.262;2023-04-24T01:35:08;14.73;;;12.38;;
59468;SDS011;45277;52.768;18.262;2023-04-24T01:36:41;17.58;;;12.05;;
59468;SDS011;45277;52.768;18.262;2023-04-24T01:38:13;16.25;;;11.77;;
59468;SDS011;45277;52.768;18.262;2023-04-24T01:39:45;17.15;;;11.82;;
59468;SDS011;45277;52.768;18.262;2023-04-24T01:41:17;15.68;;;12.68;;
59468;SDS011;45277;52.768;18.262;2023-04-24T01:42:49;17.63;;;12.95;;
59468;SDS011;45277;52.768;18.262;2023-04-24T01:44:21;17.13;;;12.13;;
59468;SDS011;45277;52.768;18.262;2023-04-24T01:45:52;18.58;;;12.00;;
59468;SDS011;45277;52.768;18.262;2023-04-24T01:47:24;16.45;;;12.68;;
59468;SDS011;45277;52.768;18.262;2023-04-24T01:48:55;17.63;;;12.65;;
59468;SDS011;45277;52.768;18.262;2023-04-24T01:50:27;18.35;;;12.43;;
59468;SDS011;45277;52.768;18.262;2023-04-24T01:51:58;17.52;;;13.32;;
59468;SDS011;45277;52.768;18.262;2023-04-24T01:53:30;20.92;;;14.05;;
59468;SDS011;45277;52.768;18.262;2023-04-24T01:55:02;18.20;;;13.70;;
59468;SDS011;45277;52.768;18.262;2023-04-24T01:56:34;17.85;;;14.10;;
59468;SDS011;45277;52.768;18.262;2023-04-24T01:58:07;21.55;;;13.80;;
59468;SDS011;45277;52.768;18.262;2023-04-24T01:59:38;17.92;;;13.60;;
59468;SDS011;45277;52.768;18.262;2023-04-24T02:01:14;16.88;;;14.00;;
59468;SDS011;45277;52.768;18.262;2023-04-24T02:02:48;18.85;;;14.25;;
59468;SDS011;45277;52.768;18.262;2023-04-24T02:04:20;20.35;;;14.05;;
59468;SDS011;45277;52.768;18.262;2023-04-24T02:05:52;19.38;;;14.38;;
59468;SDS011;45277;52.768;18.262;2023-04-24T02:07:23;18.52;;;13.80;;
59468;SDS011;45277;52.768;18.262;2023-04-24T02:08:55;21.73;;;14.82;;
59468;SDS011;45277;52.768;18.262;2023-04-24T02:10:26;16.60;;;13.40;;
59468;SDS011;45277;52.768;18.262;2023-04-24T02:11:58;18.98;;;14.20;;
59468;SDS011;45277;52.768;18.262;2023-04-24T02:13:29;17.85;;;13.48;;
59468;SDS011;45277;52.768;18.262;2023-04-24T02:15:01;17.85;;;13.68;;
59468;SDS011;45277;52.768;18.262;2023-04-24T02:16:33;19.83;;;13.45;;
59468;SDS011;45277;52.768;18.262;2023-04-24T02:18:06;19.88;;;13.60;;
59468;SDS011;45277;52.768;18.262;2023-04-24T02:19:38;20.10;;;13.43;;
59468;SDS011;45277;52.768;18.262;2023-04-24T02:21:09;17.08;;;13.15;;
59468;SDS011;45277;52.768;18.262;2023-04-24T02:22:41;20.00;;;13.82;;
59468;SDS011;45277;52.768;18.262;2023-04-24T02:24:13;20.98;;;13.50;;
59468;SDS011;45277;52.768;18.262;2023-04-24T02:25:44;19.70;;;14.27;;
59468;SDS011;45277;52.768;18.262;2023-04-24T02:27:16;20.65;;;13.88;;
59468;SDS011;45277;52.768;18.262;2023-04-24T02:28:48;17.88;;;13.02;;
59468;SDS011;45277;52.768;18.262;2023-04-24T02:30:19;17.98;;;12.90;;
59468;SDS011;45277;52.768;18.262;2023-04-24T02:31:51;21.10;;;12.98;;
59468;SDS011;45277;52.768;18.262;2023-04-24T02:33:22;18.38;;;12.52;;
59468;SDS011;45277;52.768;18.262;2023-04-24T02:34:53;18.80;;;14.48;;
59468;SDS011;45277;52.768;18.262;2023-04-24T02:36:25;20.38;;;13.88;;
59468;SDS011;45277;52.768;18.262;2023-04-24T02:37:56;19.65;;;14.20;;
59468;SDS011;45277;52.768;18.262;2023-04-24T02:39:28;17.00;;;13.07;;
59468;SDS011;45277;52.768;18.262;2023-04-24T02:40:59;16.67;;;12.85;;
59468;SDS011;45277;52.768;18.262;2023-04-24T02:42:32;20.02;;;14.05;;
59468;SDS011;45277;52.768;18.262;2023-04-24T02:44:03;17.75;;;13.23;;
59468;SDS011;45277;52.768;18.262;2023-04-24T02:45:35;18.83;;;13.75;;
59468;SDS011;45277;52.768;18.262;2023-04-24T02:47:08;17.65;;;13.63;;
59468;SDS011;45277;52.768;18.262;2023-04-24T02:48:39;19.20;;;13.90;;
59468;SDS011;45277;52.768;18.262;2023-04-24T02:50:11;19.90;;;13.82;;
59468;SDS011;45277;52.768;18.262;2023-04-24T02:51:42;18.42;;;13.32;;
59468;SDS011;45277;52.768;18.262;2023-04-24T02:53:14;18.20;;;13.93;;
59468;SDS011;45277;52.768;18.262;2023-04-24T02:54:45;18.48;;;13.20;;
59468;SDS011;45277;52.768;18.262;2023-04-24T02:56:17;21.00;;;13.77;;
59468;SDS011;45277;52.768;18.262;2023-04-24T02:57:48;17.83;;;13.23;;
59468;SDS011;45277;52.768;18.262;2023-04-24T02:59:20;20.63;;;14.02;;
59468;SDS011;45277;52.768;18.262;2023-04-24T03:00:54;20.55;;;13.30;;
59468;SDS011;45277;52.768;18.262;2023-04-24T03:02:26;19.40;;;13.80;;
59468;SDS011;45277;52.768;18.262;2023-04-24T03:03:58;21.25;;;14.77;;
59468;SDS011;45277;52.768;18.262;2023-04-24T03:05:29;21.85;;;14.32;;
59468;SDS011;45277;52.768;18.262;2023-04-24T03:07:01;21.50;;;13.07;;
59468;SDS011;45277;52.768;18.262;2023-04-24T03:08:33;18.33;;;13.63;;
59468;SDS011;45277;52.768;18.262;2023-04-24T03:10:05;20.52;;;14.32;;
59468;SDS011;45277;52.768;18.262;2023-04-24T03:11:37;19.60;;;13.80;;
59468;SDS011;45277;52.768;18.262;2023-04-24T03:13:09;24.08;;;14.10;;
59468;SDS011;45277;52.768;18.262;2023-04-24T03:14:40;17.95;;;14.27;;
59468;SDS011;45277;52.768;18.262;2023-04-24T03:16:11;23.85;;;15.68;;
59468;SDS011;45277;52.768;18.262;2023-04-24T03:17:43;20.63;;;15.35;;
59468;SDS011;45277;52.768;18.262;2023-04-24T03:19:15;23.13;;;15.50;;
59468;SDS011;45277;52.768;18.262;2023-04-24T03:20:46;21.10;;;16.05;;
59468;SDS011;45277;52.768;18.262;2023-04-24T03:22:18;19.58;;;14.13;;
59468;SDS011;45277;52.768;18.262;2023-04-24T03:23:49;22.88;;;14.68;;
59468;SDS011;45277;52.768;18.262;2023-04-24T03:25:21;19.50;;;14.65;;
59468;SDS011;45277;52.768;18.262;2023-04-24T03:26:52;21.63;;;14.70;;
59468;SDS011;45277;52.768;18.262;2023-04-24T03:28:24;19.80;;;14.25;;
59468;SDS011;45277;52.768;18.262;2023-04-24T03:29:55;17.65;;;14.43;;
59468;SDS011;45277;52.768;18.262;2023-04-24T03:31:27;19.30;;;14.52;;
59468;SDS011;45277;52.768;18.262;2023-04-24T03:32:58;18.95;;;13.90;;
59468;SDS011;45277;52.768;18.262;2023-04-24T03:34:30;18.98;;;15.30;;
59468;SDS011;45277;52.768;18.262;2023-04-24T03:36:02;19.83;;;13.73;;
59468;SDS011;45277;52.768;18.262;2023-04-24T03:37:33;21.58;;;13.90;;
59468;SDS011;45277;52.768;18.262;2023-04-24T03:39:05;23.63;;;13.82;;
59468;SDS011;45277;52.768;18.262;2023-04-24T03:40:36;19.55;;;14.38;;
59468;SDS011;45277;52.768;18.262;2023-04-24T03:42:08;19.50;;;13.68;;
59468;SDS011;45277;52.768;18.262;2023-04-24T03:43:39;18.02;;;12.88;;
59468;SDS011;45277;52.768;18.262;2023-04-24T03:45:11;16.88;;;12.80;;
59468;SDS011;45277;52.768;18.262;2023-04-24T03:46:42;17.95;;;11.95;;
59468;SDS011;45277;52.768;18.262;2023-04-24T03:48:13;16.85;;;12.50;;
59468;SDS011;45277;52.768;18.262;2023-04-24T03:49:45;20.10;;;12.45;;
59468;SDS011;45277;52.768;18.262;2023-04-24T03:51:16;17.15;;;12.82;;
59468;SDS011;45277;52.768;18.262;2023-04-24T03:52:48;17.00;;;13.23;;
59468;SDS011;45277;52.768;18.262;2023-04-24T03:54:20;19.20;;;13.65;;
59468;SDS011;45277;52.768;18.262;2023-04-24T03:55:51;17.55;;;12.98;;
59468;SDS011;45277;52.768;18.262;2023-04-24T03:57:23;17.25;;;12.98;;
59468;SDS011;45277;52.768;18.262;2023-04-24T03:58:55;19.95;;;13.90;;
59468;SDS011;45277;52.768;18.262;2023-04-24T04:00:27;19.05;;;12.65;;
59468;SDS011;45277;52.768;18.262;2023-04-24T04:01:58;17.25;;;12.75;;
59468;SDS011;45277;52.768;18.262;2023-04-24T04:03:30;16.35;;;12.38;;
59468;SDS011;45277;52.768;18.262;2023-04-24T04:05:01;15.98;;;12.35;;
59468;SDS011;45277;52.768;18.262;2023-04-24T04:06:33;15.35;;;12.85;;
59468;SDS011;45277;52.768;18.262;2023-04-24T04:08:05;19.30;;;12.43;;
59468;SDS011;45277;52.768;18.262;2023-04-24T04:09:36;17.15;;;12.25;;
59468;SDS011;45277;52.768;18.262;2023-04-24T04:11:08;20.02;;;13.18;;
59468;SDS011;45277;52.768;18.262;2023-04-24T04:12:40;22.17;;;13.05;;
59468;SDS011;45277;52.768;18.262;2023-04-24T04:14:11;16.92;;;11.30;;
59468;SDS011;45277;52.768;18.262;2023-04-24T04:15:42;18.40;;;13.70;;
59468;SDS011;45277;52.768;18.262;2023-04-24T04:17:14;18.30;;;11.68;;
59468;SDS011;45277;52.768;18.262;2023-04-24T04:18:45;17.13;;;12.57;;
59468;SDS011;45277;52.768;18.262;2023-04-24T04:20:17;15.63;;;11.75;;
59468;SDS011;45277;52.768;18.262;2023-04-24T04:21:48;18.55;;;13.57;;
59468;SDS011;45277;52.768;18.262;2023-04-24T04:23:23;16.05;;;12.27;;
59468;SDS011;45277;52.768;18.262;2023-04-24T04:24:55;18.20;;;13.88;;
59468;SDS011;45277;52.768;18.262;2023-04-24T04:26:27;19.98;;;13.35;;
59468;SDS011;45277;52.768;18.262;2023-04-24T04:27:58;19.48;;;14.23;;
59468;SDS011;45277;52.768;18.262;2023-04-24T04:29:30;19.98;;;13.45;;
59468;SDS011;45277;52.768;18.262;2023-04-24T04:31:05;18.92;;;13.63;;
59468;SDS011;45277;52.768;18.262;2023-04-24T04:32:38;22.30;;;14.00;;
59468;SDS011;45277;52.768;18.262;2023-04-24T04:34:09;20.50;;;13.88;;
59468;SDS011;45277;52.768;18.262;2023-04-24T04:35:42;17.90;;;13.50;;
59468;SDS011;45277;52.768;18.262;2023-04-24T04:37:13;20.73;;;13.40;;
59468;SDS011;45277;52.768;18.262;2023-04-24T04:38:45;19.58;;;13.05;;
59468;SDS011;45277;52.768;18.262;2023-04-24T04:40:17;20.35;;;13.40;;
59468;SDS011;45277;52.768;18.262;2023-04-24T04:41:48;16.00;;;12.68;;
59468;SDS011;45277;52.768;18.262;2023-04-24T04:43:20;19.40;;;12.77;;
59468;SDS011;45277;52.768;18.262;2023-04-24T04:44:52;18.63;;;12.80;;
59468;SDS011;45277;52.768;18.262;2023-04-24T04:46:24;19.63;;;13.15;;
59468;SDS011;45277;52.768;18.262;2023-04-24T04:47:57;17.05;;;12.80;;
59468;SDS011;45277;52.768;18.262;2023-04-24T04:49:28;19.98;;;13.35;;
59468;SDS011;45277;52.768;18.262;2023-04-24T04:51:01;15.00;;;12.20;;
59468;SDS011;45277;52.768;18.262;2023-04-24T04:52:32;15.88;;;11.98;;
59468;SDS011;45277;52.768;18.262;2023-04-24T04:54:04;17.05;;;11.65;;
59468;SDS011;45277;52.768;18.262;2023-04-24T04:55:36;18.48;;;12.00;;
59468;SDS011;45277;52.768;18.262;2023-04-24T04:57:08;14.52;;;12.07;;
59468;SDS011;45277;52.768;18.262;2023-04-24T04:58:40;17.30;;;11.93;;
59468;SDS011;45277;52.768;18.262;2023-04-24T05:00:11;16.50;;;12.55;;
59468;SDS011;45277;52.768;18.262;2023-04-24T05:01:43;17.88;;;12.43;;
59468;SDS011;45277;52.768;18.262;2023-04-24T05:03:15;17.00;;;11.82;;
59468;SDS011;45277;52.768;18.262;2023-04-24T05:04:46;18.50;;;12.02;;
59468;SDS011;45277;52.768;18.262;2023-04-24T05:06:17;16.08;;;11.93;;
59468;SDS011;45277;52.768;18.262;2023-04-24T05:07:49;16.77;;;12.25;;
59468;SDS011;45277;52.768;18.262;2023-04-24T05:09:21;16.27;;;12.43;;
59468;SDS011;45277;52.768;18.262;2023-04-24T05:10:52;16.38;;;11.75;;
59468;SDS011;45277;52.768;18.262;2023-04-24T05:12:24;19.20;;;12.77;;
59468;SDS011;45277;52.768;18.262;2023-04-24T05:13:56;17.60;;;12.05;;
59468;SDS011;45277;52.768;18.262;2023-04-24T05:15:27;14.85;;;11.35;;
59468;SDS011;45277;52.768;18.262;2023-04-24T05:16:59;15.50;;;11.55;;
59468;SDS011;45277;52.768;18.262;2023-04-24T05:18:31;17.48;;;12.13;;
59468;SDS011;45277;52.768;18.262;2023-04-24T05:20:03;19.60;;;11.55;;
59468;SDS011;45277;52.768;18.262;2023-04-24T05:21:39;16.65;;;11.57;;
59468;SDS011;45277;52.768;18.262;2023-04-24T05:23:11;16.73;;;12.20;;
59468;SDS011;45277;52.768;18.262;2023-04-24T05:24:42;17.63;;;11.13;;
59468;SDS011;45277;52.768;18.262;2023-04-24T05:26:14;17.70;;;11.10;;
59468;SDS011;45277;52.768;18.262;2023-04-24T05:27:46;16.88;;;11.18;;
59468;SDS011;45277;52.768;18.262;2023-04-24T05:29:17;13.77;;;10.82;;
59468;SDS011;45277;52.768;18.262;2023-04-24T05:30:50;17.55;;;11.85;;
59468;SDS011;45277;52.768;18.262;2023-04-24T05:32:21;15.55;;;11.15;;
59468;SDS011;45277;52.768;18.262;2023-04-24T05:33:53;16.90;;;11.27;;
59468;SDS011;45277;52.768;18.262;2023-04-24T05:35:25;18.05;;;11.88;;
59468;SDS011;45277;52.768;18.262;2023-04-24T05:36:56;17.65;;;11.52;;
59468;SDS011;45277;52.768;18.262;2023-04-24T05:38:27;15.07;;;11.55;;
59468;SDS011;45277;52.768;18.262;2023-04-24T05:39:59;16.75;;;11.52;;
59468;SDS011;45277;52.768;18.262;2023-04-24T05:41:31;16.77;;;10.65;;
59468;SDS011;45277;52.768;18.262;2023-04-24T05:43:02;17.00;;;11.20;;
59468;SDS011;45277;52.768;18.262;2023-04-24T05:44:33;15.82;;;10.88;;
59468;SDS011;45277;52.768;18.262;2023-04-24T05:46:05;16.65;;;11.55;;
59468;SDS011;45277;52.768;18.262;2023-04-24T05:47:36;16.85;;;11.07;;
59468;SDS011;45277;52.768;18.262;2023-04-24T05:49:08;16.75;;;12.00;;
59468;SDS011;45277;52.768;18.262;2023-04-24T05:50:39;20.25;;;11.60;;
59468;SDS011;45277;52.768;18.262;2023-04-24T05:52:11;18.50;;;11.52;;
59468;SDS011;45277;52.768;18.262;2023-04-24T05:53:43;14.32;;;10.73;;
59468;SDS011;45277;52.768;18.262;2023-04-24T05:55:14;17.02;;;10.68;;
59468;SDS011;45277;52.768;18.262;2023-04-24T05:56:49;14.07;;;10.43;;
59468;SDS011;45277;52.768;18.262;2023-04-24T05:58:21;18.83;;;10.95;;
59468;SDS011;45277;52.768;18.262;2023-04-24T05:59:53;15.32;;;10.43;;
59468;SDS011;45277;52.768;18.262;2023-04-24T06:01:24;14.75;;;11.25;;
59468;SDS011;45277;52.768;18.262;2023-04-24T06:02:56;14.82;;;10.93;;
59468;SDS011;45277;52.768;18.262;2023-04-24T06:04:28;18.58;;;10.45;;
59468;SDS011;45277;52.768;18.262;2023-04-24T06:06:00;11.93;;;9.95;;
59468;SDS011;45277;52.768;18.262;2023-04-24T06:07:32;19.17;;;10.75;;
59468;SDS011;45277;52.768;18.262;2023-04-24T06:09:03;15.70;;;10.05;;
59468;SDS011;45277;52.768;18.262;2023-04-24T06:10:35;18.38;;;10.95;;
59468;SDS011;45277;52.768;18.262;2023-04-24T06:12:07;25.50;;;13.88;;
59468;SDS011;45277;52.768;18.262;2023-04-24T06:13:39;21.30;;;14.25;;
59468;SDS011;45277;52.768;18.262;2023-04-24T06:15:10;20.08;;;13.88;;
59468;SDS011;45277;52.768;18.262;2023-04-24T06:16:43;16.73;;;12.82;;
59468;SDS011;45277;52.768;18.262;2023-04-24T06:18:15;17.50;;;10.15;;
59468;SDS011;45277;52.768;18.262;2023-04-24T06:19:46;14.30;;;10.10;;
59468;SDS011;45277;52.768;18.262;2023-04-24T06:21:18;14.13;;;9.43;;
59468;SDS011;45277;52.768;18.262;2023-04-24T06:22:50;14.90;;;9.48;;
59468;SDS011;45277;52.768;18.262;2023-04-24T06:24:21;11.48;;;9.00;;
59468;SDS011;45277;52.768;18.262;2023-04-24T06:25:53;13.25;;;8.52;;
59468;SDS011;45277;52.768;18.262;2023-04-24T06:27:25;11.80;;;8.20;;
59468;SDS011;45277;52.768;18.262;2023-04-24T06:28:56;11.30;;;8.40;;
59468;SDS011;45277;52.768;18.262;2023-04-24T06:30:30;12.95;;;9.55;;
59468;SDS011;45277;52.768;18.262;2023-04-24T06:32:01;14.35;;;9.23;;
59468;SDS011;45277;52.768;18.262;2023-04-24T06:33:33;16.65;;;9.98;;
59468;SDS011;45277;52.768;18.262;2023-04-24T06:35:05;18.90;;;12.25;;
59468;SDS011;45277;52.768;18.262;2023-04-24T06:36:38;16.13;;;11.40;;
59468;SDS011;45277;52.768;18.262;2023-04-24T06:38:10;14.35;;;9.70;;
59468;SDS011;45277;52.768;18.262;2023-04-24T06:39:42;12.07;;;8.25;;
59468;SDS011;45277;52.768;18.262;2023-04-24T06:41:14;13.35;;;8.38;;
59468;SDS011;45277;52.768;18.262;2023-04-24T06:42:45;12.73;;;8.95;;
59468;SDS011;45277;52.768;18.262;2023-04-24T06:44:17;9.20;;;5.90;;
59468;SDS011;45277;52.768;18.262;2023-04-24T06:45:49;11.55;;;8.65;;
59468;SDS011;45277;52.768;18.262;2023-04-24T06:47:20;11.38;;;7.88;;
59468;SDS011;45277;52.768;18.262;2023-04-24T06:48:53;11.90;;;9.20;;
59468;SDS011;45277;52.768;18.262;2023-04-24T06:50:28;13.05;;;10.27;;
59468;SDS011;45277;52.768;18.262;2023-04-24T06:51:59;16.80;;;9.73;;
59468;SDS011;45277;52.768;18.262;2023-04-24T06:53:31;11.25;;;9.55;;
59468;SDS011;45277;52.768;18.262;2023-04-24T06:55:03;13.15;;;9.73;;
59468;SDS011;45277;52.768;18.262;2023-04-24T06:56:35;12.85;;;11.18;;
59468;SDS011;45277;52.768;18.262;2023-04-24T06:58:09;15.13;;;11.68;;
59468;SDS011;45277;52.768;18.262;2023-04-24T06:59:41;16.27;;;11.93;;
59468;SDS011;45277;52.768;18.262;2023-04-24T07:01:13;16.45;;;11.50;;
59468;SDS011;45277;52.768;18.262;2023-04-24T07:02:45;14.25;;;10.88;;
59468;SDS011;45277;52.768;18.262;2023-04-24T07:04:17;10.63;;;9.52;;
59468;SDS011;45277;52.768;18.262;2023-04-24T07:05:49;13.32;;;9.75;;
59468;SDS011;45277;52.768;18.262;2023-04-24T07:07:22;13.43;;;10.65;;
59468;SDS011;45277;52.768;18.262;2023-04-24T07:08:54;14.93;;;10.07;;
59468;SDS011;45277;52.768;18.262;2023-04-24T07:10:26;14.90;;;10.35;;
59468;SDS011;45277;52.768;18.262;2023-04-24T07:11:59;13.80;;;11.10;;
59468;SDS011;45277;52.768;18.262;2023-04-24T07:13:31;15.23;;;11.02;;
59468;SDS011;45277;52.768;18.262;2023-04-24T07:15:02;14.00;;;11.70;;
59468;SDS011;45277;52.768;18.262;2023-04-24T07:16:36;15.00;;;11.90;;
59468;SDS011;45277;52.768;18.262;2023-04-24T07:18:07;15.52;;;11.88;;
59468;SDS011;45277;52.768;18.262;2023-04-24T07:19:39;16.00;;;12.15;;
59468;SDS011;45277;52.768;18.262;2023-04-24T07:21:10;16.13;;;12.50;;
59468;SDS011;45277;52.768;18.262;2023-04-24T07:22:42;14.23;;;12.38;;
59468;SDS011;45277;52.768;18.262;2023-04-24T07:24:14;14.75;;;11.85;;
59468;SDS011;45277;52.768;18.262;2023-04-24T07:25:45;18.73;;;12.00;;
59468;SDS011;45277;52.768;18.262;2023-04-24T07:27:17;17.58;;;12.07;;
59468;SDS011;45277;52.768;18.262;2023-04-24T07:28:49;15.07;;;11.95;;
59468;SDS011;45277;52.768;18.262;2023-04-24T07:30:20;13.52;;;10.95;;
59468;SDS011;45277;52.768;18.262;2023-04-24T07:31:52;15.23;;;11.38;;
59468;SDS011;45277;52.768;18.262;2023-04-24T07:33:24;14.40;;;11.02;;
59468;SDS011;45277;52.768;18.262;2023-04-24T07:34:56;15.13;;;11.13;;
59468;SDS011;45277;52.768;18.262;2023-04-24T07:36:28;13.18;;;11.00;;
59468;SDS011;45277;52.768;18.262;2023-04-24T07:37:59;15.32;;;10.80;;
59468;SDS011;45277;52.768;18.262;2023-04-24T07:39:31;13.43;;;10.82;;
59468;SDS011;45277;52.768;18.262;2023-04-24T07:41:02;13.15;;;10.10;;
59468;SDS011;45277;52.768;18.262;2023-04-24T07:42:34;17.10;;;11.00;;
59468;SDS011;45277;52.768;18.262;2023-04-24T07:44:06;14.15;;;10.90;;
59468;SDS011;45277;52.768;18.262;2023-04-24T07:45:38;10.93;;;7.90;;
59468;SDS011;45277;52.768;18.262;2023-04-24T07:47:10;8.27;;;7.18;;
59468;SDS011;45277;52.768;18.262;2023-04-24T07:48:41;10.30;;;6.63;;
59468;SDS011;45277;52.768;18.262;2023-04-24T07:50:13;8.02;;;6.43;;
59468;SDS011;45277;52.768;18.262;2023-04-24T07:51:45;9.63;;;6.20;;
59468;SDS011;45277;52.768;18.262;2023-04-24T07:53:16;7.97;;;6.15;;
59468;SDS011;45277;52.768;18.262;2023-04-24T07:54:48;7.38;;;5.70;;
59468;SDS011;45277;52.768;18.262;2023-04-24T07:56:20;8.38;;;6.40;;
59468;SDS011;45277;52.768;18.262;2023-04-24T07:57:52;8.85;;;5.90;;
59468;SDS011;45277;52.768;18.262;2023-04-24T07:59:23;7.47;;;5.80;;
59468;SDS011;45277;52.768;18.262;2023-04-24T08:00:55;7.43;;;5.47;;
59468;SDS011;45277;52.768;18.262;2023-04-24T08:02:26;8.85;;;5.72;;
59468;SDS011;45277;52.768;18.262;2023-04-24T08:03:58;9.55;;;5.75;;
59468;SDS011;45277;52.768;18.262;2023-04-24T08:05:30;8.15;;;5.35;;
59468;SDS011;45277;52.768;18.262;2023-04-24T08:07:01;7.75;;;5.78;;
59468;SDS011;45277;52.768;18.262;2023-04-24T08:08:33;7.40;;;5.05;;
59468;SDS011;45277;52.768;18.262;2023-04-24T08:10:05;6.95;;;5.65;;
59468;SDS011;45277;52.768;18.262;2023-04-24T08:11:37;7.28;;;5.50;;
59468;SDS011;45277;52.768;18.262;2023-04-24T08:13:08;6.63;;;5.57;;
59468;SDS011;45277;52.768;18.262;2023-04-24T08:14:41;6.93;;;6.00;;
59468;SDS011;45277;52.768;18.262;2023-04-24T08:16:13;8.90;;;5.90;;
59468;SDS011;45277;52.768;18.262;2023-04-24T08:17:45;6.07;;;5.18;;
59468;SDS011;45277;52.768;18.262;2023-04-24T08:19:16;8.15;;;5.55;;
59468;SDS011;45277;52.768;18.262;2023-04-24T08:20:48;10.38;;;6.18;;
59468;SDS011;45277;52.768;18.262;2023-04-24T08:22:20;8.00;;;6.03;;
59468;SDS011;45277;52.768;18.262;2023-04-24T08:23:51;7.15;;;6.00;;
59468;SDS011;45277;52.768;18.262;2023-04-24T08:25:23;8.95;;;6.38;;
59468;SDS011;45277;52.768;18.262;2023-04-24T08:26:55;7.78;;;6.22;;
59468;SDS011;45277;52.768;18.262;2023-04-24T08:28:28;10.00;;;6.38;;
59468;SDS011;45277;52.768;18.262;2023-04-24T08:29:59;7.82;;;6.10;;
59468;SDS011;45277;52.768;18.262;2023-04-24T08:31:31;7.80;;;6.30;;
59468;SDS011;45277;52.768;18.262;2023-04-24T08:33:03;8.07;;;6.35;;
59468;SDS011;45277;52.768;18.262;2023-04-24T08:34:34;7.07;;;6.30;;
59468;SDS011;45277;52.768;18.262;2023-04-24T08:36:06;13.05;;;6.07;;
59468;SDS011;45277;52.768;18.262;2023-04-24T08:37:38;8.30;;;6.00;;
59468;SDS011;45277;52.768;18.262;2023-04-24T08:39:09;7.72;;;6.10;;
59468;SDS011;45277;52.768;18.262;2023-04-24T08:40:41;8.73;;;5.78;;
59468;SDS011;45277;52.768;18.262;2023-04-24T08:42:13;10.57;;;6.88;;
59468;SDS011;45277;52.768;18.262;2023-04-24T08:43:46;10.75;;;5.80;;
59468;SDS011;45277;52.768;18.262;2023-04-24T08:45:18;7.28;;;5.30;;
59468;SDS011;45277;52.768;18.262;2023-04-24T08:46:50;7.18;;;5.35;;
59468;SDS011;45277;52.768;18.262;2023-04-24T08:48:22;8.88;;;5.90;;
59468;SDS011;45277;52.768;18.262;2023-04-24T08:49:54;8.15;;;6.00;;
59468;SDS011;45277;52.768;18.262;2023-04-24T08:51:27;8.50;;;5.93;;